Time;durP1;ratioP1;P1;durP2;ratioP2;P2;SDS_P1;SDS_P2;PMS_P1;PMS_P2;Temp;Humidity;BMP_temperature;BMP_pressure;BME280_temperature;BME280_humidity;BME280_pressure;Samples;Min_cycle;Max_cycle;Signal;HPM_P1;HPM_P2
2021/12/17 00:03:50;;;;;;;18.20;11.83;;;;;;;7.16;93.40;101947.66;2975210;80;21039;-75
2021/12/17 00:07:51;;;;;;;18.07;10.58;;;;;;;7.21;93.25;101948.31;2975095;80;21028;-76
2021/12/17 00:11:53;;;;;;;12.40;8.93;;;;;;;7.14;93.52;101946.86;2974659;80;21040;-76
2021/12/17 00:15:55;;;;;;;19.35;10.15;;;;;;;7.14;92.94;101932.30;2974801;80;21036;-77
2021/12/17 00:49:32;;;;;;;17.37;6.67;;;;;;;7.04;92.06;101966.22;2899995;82;21003;-76
2021/12/17 00:53:33;;;;;;;;;;;;;;;7.05;92.45;101980.29;2902259;82;21084;-76
2021/12/17 00:57:41;;;;;;;13.75;4.92;;;;;;;6.91;92.11;101975.55;2919255;80;20151;-76
2021/12/17 01:01:39;;;;;;;11.65;6.03;;;;;;;7.03;92.01;101992.72;2960163;80;21075;-74
2021/12/17 01:05:41;;;;;;;12.07;6.03;;;;;;;7.13;92.62;101983.52;2942098;80;20993;-74
2021/12/17 01:09:45;;;;;;;12.33;5.40;;;;;;;7.06;92.54;101993.92;2900459;82;21028;-74
2021/12/17 01:13:47;;;;;;;9.05;4.67;;;;;;;7.03;92.91;102000.66;2899976;82;21580;-76
2021/12/17 01:17:54;;;;;;;10.38;6.30;;;;;;;6.98;92.78;101997.74;2900067;82;21017;-76
2021/12/17 01:22:29;;;;;;;9.78;5.78;;;;;;;7.02;92.50;102013.49;2900662;82;21048;-76
2021/12/17 01:39:42;;;;;;;18.37;7.17;;;;;;;6.91;91.59;101987.45;2890179;82;21069;-76
2021/12/17 01:42:52;;;;;;;16.20;7.92;;;;;;;6.95;92.20;101992.58;2859170;83;21026;-75
2021/12/17 01:46:54;;;;;;;13.45;6.78;;;;;;;6.88;92.55;101983.17;2863361;83;21244;-75
2021/12/17 01:59:38;;;;;;;21.95;7.72;;;;;;;6.82;93.35;101966.19;2863153;82;21563;-76
2021/12/17 02:03:37;;;;;;;;;;;;;;;6.85;93.37;101960.78;2865827;83;21363;-76
2021/12/17 02:07:39;;;;;;;14.70;6.78;;;;;;;6.78;93.82;101959.30;2862903;83;20132;-74
2021/12/17 02:33:20;;;;;;;12.03;7.85;;;;;;;6.69;95.80;101965.81;2937905;81;21539;-75
2021/12/17 02:37:25;;;;;;;14.73;8.30;;;;;;;6.64;96.18;101965.98;2929715;81;21082;-74
2021/12/17 02:45:40;;;;;;;20.68;8.90;;;;;;;6.56;96.30;101961.46;2918917;80;21028;-75
2021/12/17 02:49:45;;;;;;;29.72;11.35;;;;;;;6.62;96.58;101964.34;2961203;80;21051;-76
2021/12/17 02:53:47;;;;;;;18.65;9.70;;;;;;;6.62;96.47;101949.31;2961017;80;21031;-76
2021/12/17 02:57:50;;;;;;;19.92;11.65;;;;;;;6.58;96.56;101935.82;2961086;80;21076;-76
2021/12/17 03:01:52;;;;;;;23.20;12.20;;;;;;;6.59;96.54;101949.44;2961144;80;21023;-76
2021/12/17 03:05:54;;;;;;;26.65;12.50;;;;;;;6.60;96.54;101951.64;2961128;80;21532;-76
2021/12/17 03:14:00;;;;;;;28.45;10.80;;;;;;;6.59;96.97;101938.86;2961725;80;21019;-76
2021/12/17 03:26:27;;;;;;;29.65;11.48;;;;;;;6.53;96.99;101935.14;2961340;80;21044;-75
2021/12/17 03:30:29;;;;;;;23.25;12.23;;;;;;;6.50;97.30;101940.55;2961057;80;20985;-77
2021/12/17 03:34:30;;;;;;;18.25;9.80;;;;;;;6.55;96.99;101933.30;2961250;80;20977;-77
2021/12/17 03:38:32;;;;;;;14.90;9.58;;;;;;;6.43;97.37;101940.77;2961157;80;21071;-76
2021/12/17 03:42:33;;;;;;;27.67;11.78;;;;;;;6.42;97.29;101940.36;2961480;80;21047;-76
2021/12/17 03:46:35;;;;;;;23.20;9.95;;;;;;;6.44;97.44;101936.36;2961536;80;21028;-77
2021/12/17 03:50:37;;;;;;;27.85;11.90;;;;;;;6.38;97.62;101936.13;2960751;80;21020;-76
2021/12/17 03:54:39;;;;;;;53.35;12.85;;;;;;;6.36;97.82;101927.39;2949671;80;21008;-76
2021/12/17 03:58:41;;;;;;;17.25;11.12;;;;;;;6.36;97.71;101930.48;2919887;80;20981;-74
2021/12/17 04:02:42;;;;;;;33.63;13.05;;;;;;;6.38;97.76;101925.55;2960405;80;21005;-78
2021/12/17 04:06:44;;;;;;;23.40;14.23;;;;;;;6.36;97.87;101916.81;2962519;80;21044;-74
2021/12/17 04:10:49;;;;;;;17.10;10.80;;;;;;;6.41;97.67;101926.75;2961830;80;21031;-76
2021/12/17 04:14:49;;;;;;;24.60;12.88;;;;;;;6.40;97.60;101914.45;2953495;80;20988;-74
2021/12/17 04:18:51;;;;;;;24.45;10.32;;;;;;;6.31;97.89;101933.77;2962842;80;21012;-71
2021/12/17 04:22:53;;;;;;;18.65;10.18;;;;;;;6.30;98.04;101930.27;2962912;80;21032;-71
2021/12/17 04:26:54;;;;;;;20.60;8.80;;;;;;;6.31;97.87;101944.33;2962726;80;21032;-72
2021/12/17 04:30:56;;;;;;;17.17;7.72;;;;;;;6.30;97.68;101931.59;2962606;80;21047;-74
2021/12/17 04:34:58;;;;;;;23.12;11.22;;;;;;;6.34;97.61;101929.23;2962791;80;21040;-71
2021/12/17 04:39:00;;;;;;;21.23;10.50;;;;;;;6.37;97.41;101930.88;2962478;79;21083;-71
2021/12/17 05:00:01;;;;;;;26.15;11.20;;;;;;;6.35;96.91;101926.98;2962749;80;20993;-71
2021/12/17 05:04:04;;;;;;;24.92;12.00;;;;;;;6.43;96.66;101926.22;2917340;80;21049;-72
2021/12/17 05:08:11;;;;;;;24.67;11.90;;;;;;;6.51;96.29;101933.02;2962686;80;20980;-71
2021/12/17 05:20:45;;;;;;;25.32;8.45;;;;;;;6.56;95.51;101937.66;2918102;80;21000;-75
2021/12/17 05:24:43;;;;;;;15.70;7.67;;;;;;;6.52;95.55;101943.52;2961246;80;21584;-74
2021/12/17 05:28:45;;;;;;;16.57;7.33;;;;;;;6.56;94.95;101948.23;2962852;80;21075;-76
2021/12/17 05:32:47;;;;;;;13.35;8.05;;;;;;;6.53;94.58;101952.33;2962460;80;21067;-75
2021/12/17 05:36:48;;;;;;;36.10;6.85;;;;;;;6.54;94.39;101951.41;2944774;80;21366;-74
2021/12/17 05:40:51;;;;;;;24.82;9.95;;;;;;;6.57;94.57;101938.91;2943842;79;21027;-73
2021/12/17 05:44:58;;;;;;;22.42;9.38;;;;;;;6.57;94.56;101944.67;2962505;80;21051;-75
2021/12/17 05:48:56;;;;;;;15.28;8.73;;;;;;;6.51;94.51;101914.52;2952182;80;21052;-71
2021/12/17 05:52:58;;;;;;;19.27;8.53;;;;;;;6.50;94.79;101916.76;2963353;80;21004;-76
2021/12/17 05:57:00;;;;;;;14.33;6.83;;;;;;;6.48;94.79;101908.88;2963155;80;21037;-74
2021/12/17 06:01:01;;;;;;;23.90;8.53;;;;;;;6.40;94.72;101909.16;2963272;80;21642;-74
2021/12/17 06:05:04;;;;;;;16.12;8.55;;;;;;;6.43;94.84;101911.69;2963225;80;21455;-73
2021/12/17 06:09:08;;;;;;;16.97;7.22;;;;;;;6.39;94.58;101902.63;2963408;80;21063;-73
2021/12/17 06:13:10;;;;;;;16.37;7.75;;;;;;;6.25;94.35;101888.59;2963146;80;20996;-70
2021/12/17 06:17:11;;;;;;;17.48;8.45;;;;;;;6.27;94.38;101900.84;2963346;80;20981;-73
2021/12/17 06:21:14;;;;;;;13.88;7.83;;;;;;;6.27;94.57;101899.97;2963389;80;21075;-74
2021/12/17 06:25:17;;;;;;;12.68;6.60;;;;;;;6.24;93.61;101892.16;2963222;80;21020;-76
2021/12/17 06:29:19;;;;;;;18.73;8.33;;;;;;;6.18;94.50;101899.02;2963195;80;21028;-76
2021/12/17 06:33:20;;;;;;;19.05;9.00;;;;;;;6.14;94.54;101887.23;2963034;80;20984;-74
2021/12/17 06:37:22;;;;;;;21.12;9.65;;;;;;;6.17;94.69;101902.58;2963154;80;20997;-76
2021/12/17 06:41:24;;;;;;;20.77;10.38;;;;;;;6.18;94.71;101896.37;2968289;80;21074;-76
2021/12/17 06:45:43;;;;;;;13.28;8.35;;;;;;;6.14;95.31;101891.20;2972341;80;20992;-74
2021/12/17 07:23:08;;;;;;;18.65;9.08;;;;;;;6.00;95.59;101859.12;2972678;80;21015;-74
2021/12/17 07:35:48;;;;;;;11.08;6.70;;;;;;;6.14;94.16;101862.58;2972120;80;20989;-75
2021/12/17 07:39:48;;;;;;;13.65;9.28;;;;;;;6.06;93.76;101877.40;2971758;80;21048;-74
2021/12/17 07:43:55;;;;;;;18.70;10.18;;;;;;;6.02;93.84;101871.84;2972298;80;21000;-73
2021/12/17 07:47:56;;;;;;;24.10;11.28;;;;;;;6.00;94.06;101869.69;2971891;80;21063;-74
2021/12/17 07:51:58;;;;;;;20.97;11.22;;;;;;;6.00;94.97;101889.05;2972696;80;21072;-71
2021/12/17 07:56:02;;;;;;;15.35;8.73;;;;;;;6.07;95.84;101879.12;2972464;80;21094;-74
2021/12/17 08:00:07;;;;;;;23.25;9.15;;;;;;;6.14;95.18;101904.41;2972425;80;21051;-73
2021/12/17 08:04:10;;;;;;;18.92;8.50;;;;;;;6.14;94.89;101918.95;2972459;80;21012;-73
2021/12/17 08:08:12;;;;;;;19.32;10.15;;;;;;;6.27;94.27;101933.00;2972269;80;21051;-75
2021/12/17 08:12:16;;;;;;;12.43;7.42;;;;;;;6.37;93.59;101939.69;2971898;80;21044;-76
2021/12/17 08:16:31;;;;;;;22.20;11.25;;;;;;;6.34;93.24;101951.70;2972445;80;21051;-73
2021/12/17 08:32:56;;;;;;;16.90;6.72;;;;;;;6.54;92.44;101995.87;2972499;80;21048;-76
2021/12/17 08:36:57;;;;;;;15.15;7.45;;;;;;;6.53;90.95;101994.16;2972471;80;21059;-76
2021/12/17 08:41:00;;;;;;;14.68;6.28;;;;;;;6.58;91.12;101992.67;2972420;80;21071;-73
2021/12/17 08:45:04;;;;;;;18.75;7.22;;;;;;;6.64;89.69;101992.91;2972357;80;21016;-75
2021/12/17 08:49:06;;;;;;;12.43;7.35;;;;;;;6.57;88.67;101996.23;2972402;80;20992;-70
2021/12/17 08:53:07;;;;;;;13.35;6.90;;;;;;;6.65;89.30;101991.98;2972451;80;20996;-77
2021/12/17 08:57:09;;;;;;;28.02;11.60;;;;;;;6.64;88.28;101988.45;2972324;80;21000;-76
2021/12/17 09:01:11;;;;;;;14.10;8.98;;;;;;;6.64;88.04;101981.84;2972266;80;20977;-78
2021/12/17 09:05:13;;;;;;;12.30;6.25;;;;;;;6.67;87.79;101984.38;2972657;80;21039;-77
2021/12/17 09:09:19;;;;;;;15.28;6.92;;;;;;;6.74;88.25;101980.19;2972130;80;21052;-76
2021/12/17 09:13:18;;;;;;;10.20;5.65;;;;;;;6.67;87.11;101988.34;2971680;80;21071;-76
2021/12/17 09:17:24;;;;;;;9.95;6.00;;;;;;;6.83;86.69;101982.47;2972430;80;21028;-72
2021/12/17 09:21:24;;;;;;;14.28;6.12;;;;;;;6.81;86.12;101996.21;2972036;80;21016;-72
2021/12/17 09:25:26;;;;;;;16.67;6.35;;;;;;;6.76;86.57;101991.56;2970578;80;20979;-77
2021/12/17 09:29:28;;;;;;;12.58;6.33;;;;;;;6.71;87.08;102005.84;2973086;80;20999;-76
2021/12/17 09:33:30;;;;;;;15.93;6.87;;;;;;;6.85;87.42;102011.03;2972388;80;21014;-73
2021/12/17 09:37:31;;;;;;;14.07;5.22;;;;;;;6.77;87.16;102002.55;2972952;80;21077;-77
2021/12/17 09:41:34;;;;;;;16.05;8.03;;;;;;;6.79;87.64;102005.99;2962488;79;23335;-76
2021/12/17 09:45:36;;;;;;;9.13;4.83;;;;;;;6.83;86.20;102003.17;2951985;80;21007;-73
2021/12/17 09:49:38;;;;;;;10.15;5.45;;;;;;;6.79;85.81;102003.34;2951555;80;20991;-76
2021/12/17 09:53:40;;;;;;;20.43;11.15;;;;;;;6.84;85.90;101996.09;2951781;80;21082;-72
2021/12/17 09:57:42;;;;;;;15.13;8.13;;;;;;;6.91;86.50;101981.72;2950857;80;21046;-71
2021/12/17 10:01:46;;;;;;;13.65;5.85;;;;;;;6.80;85.82;101985.23;2951434;80;20983;-73
2021/12/17 10:05:48;;;;;;;9.33;5.00;;;;;;;6.83;86.34;101987.31;2951640;80;20998;-72
2021/12/17 10:10:00;;;;;;;10.65;5.40;;;;;;;6.88;85.94;101976.55;2951453;80;20995;-73
2021/12/17 10:14:22;;;;;;;22.65;6.30;;;;;;;6.83;85.28;101973.20;2951553;80;21047;-73
2021/12/17 10:18:42;;;;;;;8.98;4.55;;;;;;;6.92;85.56;101982.13;2951493;80;21046;-73
2021/12/17 10:23:06;;;;;;;10.10;6.20;;;;;;;6.86;85.39;101991.16;2951452;80;21010;-76
2021/12/17 10:27:25;;;;;;;12.07;6.03;;;;;;;6.84;85.71;101985.06;2951684;80;21007;-76
2021/12/17 10:31:29;;;;;;;8.05;5.03;;;;;;;6.83;84.85;101986.43;2951578;80;21011;-75
2021/12/17 10:35:33;;;;;;;14.55;5.55;;;;;;;6.85;85.38;101993.84;2951314;80;21027;-71
2021/12/17 10:39:36;;;;;;;18.50;5.83;;;;;;;6.92;85.92;101985.21;2951309;80;21002;-73
2021/12/17 10:43:44;;;;;;;20.17;9.83;;;;;;;6.81;85.15;101975.05;2962685;80;20979;-75
2021/12/17 10:47:57;;;;;;;9.25;3.75;;;;;;;6.90;85.09;101968.54;2964319;80;21050;-76
2021/12/17 10:51:57;;;;;;;6.70;4.12;;;;;;;6.75;85.41;101988.52;2941109;80;21085;-76
2021/12/17 10:55:57;;;;;;;11.80;6.45;;;;;;;6.81;84.77;101977.70;2963358;80;21006;-72
2021/12/17 11:00:01;;;;;;;8.85;5.17;;;;;;;6.85;85.94;101986.78;2964452;80;20986;-74
2021/12/17 11:04:19;;;;;;;14.03;6.08;;;;;;;6.83;84.91;101977.17;2940015;80;20979;-76
2021/12/17 11:08:33;;;;;;;10.75;5.50;;;;;;;6.84;85.18;101965.67;2963153;80;20955;-76
2021/12/17 11:12:38;;;;;;;17.00;7.30;;;;;;;6.81;85.23;101971.96;2964058;80;20975;-76
2021/12/17 11:16:40;;;;;;;15.23;4.60;;;;;;;6.84;85.79;101963.90;2964421;80;21034;-70
2021/12/17 11:20:42;;;;;;;5.85;3.42;;;;;;;6.77;84.71;101975.63;2964333;80;21010;-76
2021/12/17 11:24:44;;;;;;;9.05;5.53;;;;;;;6.82;83.98;101974.12;2964407;79;21038;-71
2021/12/17 11:28:46;;;;;;;14.07;7.15;;;;;;;6.85;84.30;101970.03;2964321;80;20998;-73
2021/12/17 11:32:50;;;;;;;8.23;4.12;;;;;;;6.85;84.58;101970.91;2964544;80;20943;-74
2021/12/17 11:36:52;;;;;;;7.97;4.83;;;;;;;6.92;83.16;101971.54;2964785;80;20955;-74
2021/12/17 11:41:07;;;;;;;7.12;5.00;;;;;;;6.80;83.60;101982.59;2964990;80;20998;-77
2021/12/17 11:49:26;;;;;;;14.13;7.72;;;;;;;6.62;83.32;101981.05;2968366;80;21038;-75
2021/12/17 11:53:28;;;;;;;9.15;5.42;;;;;;;6.59;82.88;101990.42;2968256;80;21463;-78
2021/12/17 11:57:35;;;;;;;12.75;6.58;;;;;;;6.63;83.92;101981.45;2967840;80;21019;-77
2021/12/17 12:02:05;;;;;;;7.72;4.78;;;;;;;6.68;83.65;101975.98;2965950;80;21030;-73
2021/12/17 12:06:12;;;;;;;7.22;4.35;;;;;;;6.66;83.82;101968.10;2968203;80;21344;-71
2021/12/17 12:10:21;;;;;;;22.82;4.35;;;;;;;6.70;83.90;101968.41;2960754;80;21384;-73
2021/12/17 12:14:32;;;;;;;12.18;5.45;;;;;;;6.77;83.99;101970.81;2968142;80;21062;-75
2021/12/17 12:18:51;;;;;;;5.85;4.33;;;;;;;6.75;84.57;101986.73;2968129;80;21027;-73
2021/12/17 12:23:13;;;;;;;15.90;8.13;;;;;;;6.69;84.02;101981.23;2967901;80;21019;-75
2021/12/17 12:27:30;;;;;;;13.95;6.28;;;;;;;6.69;84.16;101986.52;2951129;80;21719;-75
2021/12/17 12:31:38;;;;;;;;;;;;;;;6.70;84.17;101984.28;2970977;80;20998;-71
2021/12/17 12:35:43;;;;;;;6.20;3.58;;;;;;;6.62;85.00;101982.37;2967877;80;20123;-76
2021/12/17 12:39:57;;;;;;;8.40;4.35;;;;;;;6.55;84.88;101987.50;2965405;80;21113;-73
2021/12/17 12:43:57;;;;;;;9.48;3.58;;;;;;;6.51;85.14;101983.25;2953343;80;21050;-76
2021/12/17 12:48:01;;;;;;;5.33;2.42;;;;;;;6.52;84.86;101982.33;2951356;80;21003;-73
2021/12/17 12:52:39;;;;;;;11.18;2.85;;;;;;;6.51;84.42;101980.61;2951466;80;21122;-72
2021/12/17 12:56:41;;;;;;;3.85;1.65;;;;;;;6.36;84.51;101978.94;2951521;80;21026;-72
2021/12/17 13:00:54;;;;;;;3.12;2.08;;;;;;;6.24;84.47;101970.13;2951969;80;21101;-75
2021/12/17 13:05:00;;;;;;;5.53;2.27;;;;;;;6.20;85.00;101968.52;2950786;80;21089;-78
2021/12/17 13:09:01;;;;;;;6.30;1.77;;;;;;;6.21;85.40;101964.52;2951316;80;21023;-73
2021/12/17 13:13:19;;;;;;;3.70;2.10;;;;;;;6.08;85.33;101960.11;2951586;80;21002;-75
2021/12/17 13:21:46;;;;;;;7.03;2.37;;;;;;;6.06;84.04;101980.44;2913032;80;21027;-76
2021/12/17 13:26:08;;;;;;;3.40;2.77;;;;;;;6.02;84.76;101985.43;2951278;80;20992;-74
2021/12/17 13:30:11;;;;;;;3.95;2.55;;;;;;;6.05;85.29;101978.71;2950544;80;21527;-77
2021/12/17 13:34:26;;;;;;;10.63;3.20;;;;;;;5.98;84.97;101974.55;2951697;80;21023;-77
2021/12/17 13:38:32;;;;;;;4.75;2.77;;;;;;;6.02;85.35;101980.15;2951335;80;20987;-75
2021/12/17 13:42:43;;;;;;;4.70;3.30;;;;;;;6.01;85.90;101965.22;2956724;80;21095;-72
2021/12/17 13:46:44;;;;;;;9.60;6.42;;;;;;;5.90;86.03;101960.76;2964281;80;21023;-73
2021/12/17 13:50:50;;;;;;;5.72;4.30;;;;;;;6.03;86.56;101978.38;2964534;80;21645;-74
2021/12/17 13:54:51;;;;;;;9.63;7.00;;;;;;;6.11;86.20;101976.31;2964230;80;21066;-77
2021/12/17 13:59:00;;;;;;;7.37;5.15;;;;;;;6.02;86.15;101978.83;2964286;80;20947;-73
2021/12/17 14:03:04;;;;;;;11.33;4.22;;;;;;;6.06;86.17;101987.04;2964284;80;21022;-74
2021/12/17 14:07:11;;;;;;;12.53;6.55;;;;;;;6.11;86.23;101990.84;2964557;80;21721;-72
2021/12/17 14:11:29;;;;;;;5.75;4.35;;;;;;;6.13;86.65;101982.41;2964355;80;21026;-72
2021/12/17 14:15:35;;;;;;;5.67;3.70;;;;;;;6.13;86.52;101985.92;2863431;83;21051;-76
2021/12/17 14:19:46;;;;;;;19.12;9.05;;;;;;;6.17;86.50;101989.30;2861655;83;21380;-75
2021/12/17 14:23:48;;;;;;;9.23;6.00;;;;;;;6.13;86.27;101983.28;2860823;83;21646;-75
2021/12/17 14:27:51;;;;;;;6.65;3.85;;;;;;;6.24;86.15;101987.30;2866184;83;21094;-72
2021/12/17 14:32:00;;;;;;;10.68;4.03;;;;;;;6.20;86.61;101985.69;2866947;83;20988;-73
2021/12/17 14:36:09;;;;;;;10.75;7.12;;;;;;;6.19;86.34;101982.65;2866607;83;21054;-74
2021/12/17 14:40:29;;;;;;;8.90;5.75;;;;;;;6.23;86.71;101985.58;2866998;83;21000;-74
2021/12/17 14:44:50;;;;;;;9.50;5.75;;;;;;;6.19;86.62;101985.29;2909733;81;21125;-72
2021/12/17 14:48:53;;;;;;;9.90;4.60;;;;;;;6.24;86.73;101985.98;2913332;81;21073;-69
2021/12/17 15:05:32;;;;;;;29.30;16.82;;;;;;;6.25;86.82;101990.34;2917220;81;21034;-75
2021/12/17 15:09:36;;;;;;;42.08;22.30;;;;;;;6.18;86.36;101994.98;2916942;81;21057;-72
2021/12/17 15:13:37;;;;;;;19.80;15.08;;;;;;;6.23;86.80;102001.44;2917268;81;21061;-72
2021/12/17 15:17:40;;;;;;;31.48;15.90;;;;;;;6.19;86.81;101999.83;2917308;81;21101;-74
2021/12/17 15:21:41;;;;;;;15.45;7.35;;;;;;;6.22;86.57;102006.31;2917008;81;20978;-76
2021/12/17 15:25:44;;;;;;;18.25;8.45;;;;;;;6.17;86.67;101970.80;2917143;81;20994;-72
2021/12/17 15:29:45;;;;;;;11.03;5.08;;;;;;;6.26;86.51;102002.20;2916434;81;21405;-71
2021/12/17 15:33:47;;;;;;;10.63;5.62;;;;;;;6.20;86.53;102006.83;2916982;81;20998;-73
2021/12/17 15:37:50;;;;;;;11.18;5.15;;;;;;;6.11;86.65;102000.97;2917202;81;21085;-72
2021/12/17 15:41:53;;;;;;;7.55;5.15;;;;;;;6.14;86.56;102010.55;2917044;81;21011;-73
2021/12/17 15:45:55;;;;;;;13.50;5.55;;;;;;;6.20;86.74;101994.94;2917127;81;21061;-75
2021/12/17 15:49:56;;;;;;;7.80;4.90;;;;;;;6.22;87.19;102003.67;2917245;81;21033;-75
2021/12/17 15:53:58;;;;;;;17.70;5.35;;;;;;;6.20;86.80;102009.03;2917213;81;21011;-72
2021/12/17 15:58:02;;;;;;;11.18;6.10;;;;;;;6.20;86.63;102011.67;2916940;81;21010;-76
2021/12/17 16:02:04;;;;;;;7.65;5.08;;;;;;;6.12;86.42;102013.27;2917105;81;20958;-72
2021/12/17 16:06:07;;;;;;;10.53;4.20;;;;;;;6.15;85.70;102001.70;2917066;81;21063;-71
2021/12/17 16:18:44;;;;;;;10.35;5.55;;;;;;;6.18;85.71;101978.28;2916657;81;21058;-76
2021/12/17 16:22:42;;;;;;;14.07;4.83;;;;;;;6.20;85.69;101985.69;2916299;81;21038;-75
2021/12/17 16:26:44;;;;;;;8.55;5.97;;;;;;;6.17;85.43;101993.27;2916823;81;21053;-74
2021/12/17 16:30:46;;;;;;;10.75;6.55;;;;;;;6.14;85.11;101995.58;2916997;81;21062;-73
2021/12/17 16:34:47;;;;;;;9.08;4.53;;;;;;;6.18;85.63;101992.81;2917268;81;21014;-74
2021/12/17 16:38:49;;;;;;;17.60;7.62;;;;;;;6.12;85.92;102007.98;2917069;81;20986;-72
2021/12/17 16:42:54;;;;;;;7.03;4.33;;;;;;;6.18;85.54;102017.92;2916856;81;21014;-73
2021/12/17 16:47:03;;;;;;;7.70;3.77;;;;;;;6.07;85.27;102027.07;2917185;81;21007;-74
2021/12/17 16:51:05;;;;;;;15.55;5.25;;;;;;;6.03;85.23;102025.46;2917338;81;21026;-75
2021/12/17 16:55:09;;;;;;;9.40;4.75;;;;;;;6.03;85.52;102034.70;2916945;81;21022;-74
2021/12/17 16:59:11;;;;;;;15.40;5.80;;;;;;;6.08;85.53;102045.12;2917133;81;21069;-70
2021/12/17 17:03:14;;;;;;;17.25;8.13;;;;;;;6.08;85.34;102049.94;2942906;80;20935;-75
2021/12/17 17:07:17;;;;;;;13.48;6.67;;;;;;;6.09;85.52;102039.80;2967933;80;21010;-67
2021/12/17 17:11:21;;;;;;;10.10;3.05;;;;;;;6.06;85.27;102037.23;2967769;80;21045;-67
2021/12/17 17:15:22;;;;;;;8.18;5.03;;;;;;;5.95;84.93;102049.47;2967534;80;21022;-71
2021/12/17 17:19:24;;;;;;;4.58;4.12;;;;;;;6.04;85.20;102037.75;2967885;80;21054;-64
2021/12/17 17:23:25;;;;;;;11.73;4.97;;;;;;;6.13;85.44;102039.22;2967963;80;21327;-71
2021/12/17 17:27:27;;;;;;;12.05;4.12;;;;;;;6.03;84.76;102034.70;2967605;80;21069;-69
2021/12/17 17:31:29;;;;;;;11.28;4.00;;;;;;;6.10;85.12;102052.09;2967909;80;21057;-65
2021/12/17 17:35:33;;;;;;;10.40;5.40;;;;;;;5.97;85.09;102043.67;2967885;80;21073;-67
2021/12/17 17:39:34;;;;;;;11.73;5.05;;;;;;;6.16;84.94;102047.50;2843414;83;21028;-68
2021/12/17 17:43:37;;;;;;;13.50;4.65;;;;;;;6.11;85.06;102047.22;2810649;84;21046;-68
2021/12/17 17:47:49;;;;;;;5.80;3.65;;;;;;;6.05;84.86;102054.01;2810652;84;21077;-66
2021/12/17 17:51:51;;;;;;;10.15;4.60;;;;;;;6.06;85.09;102071.58;2810444;84;21058;-66
2021/12/17 17:55:52;;;;;;;8.43;3.70;;;;;;;6.10;84.50;102053.86;2810438;84;21022;-64
2021/12/17 17:59:54;;;;;;;6.33;4.22;;;;;;;6.10;84.93;102058.70;2810230;84;21158;-68
2021/12/17 18:03:56;;;;;;;6.92;3.92;;;;;;;6.12;85.51;102048.94;2810447;84;21003;-67
2021/12/17 18:07:59;;;;;;;9.80;5.97;;;;;;;6.11;85.29;102056.46;2856529;83;21070;-66
2021/12/17 18:12:03;;;;;;;11.03;5.90;;;;;;;6.14;84.93;102065.59;2857930;83;21416;-68
2021/12/17 18:16:06;;;;;;;9.25;4.03;;;;;;;6.08;84.75;102081.64;2845791;83;20974;-67
2021/12/17 18:20:09;;;;;;;11.68;4.03;;;;;;;6.05;85.16;102080.43;2843990;83;21514;-67
2021/12/17 18:24:11;;;;;;;7.75;3.55;;;;;;;5.90;85.62;102082.26;2848086;83;21011;-69
2021/12/17 18:28:13;;;;;;;10.50;5.62;;;;;;;6.04;85.67;102083.98;2845915;83;20992;-64
2021/12/17 18:32:15;;;;;;;15.15;6.10;;;;;;;6.07;84.96;102079.91;2845496;83;21062;-68
2021/12/17 18:36:17;;;;;;;8.03;4.72;;;;;;;6.04;84.84;102077.86;2851099;83;20995;-65
2021/12/17 18:40:23;;;;;;;15.43;5.78;;;;;;;6.01;85.11;102080.13;2861473;83;20998;-67
2021/12/17 18:44:23;;;;;;;10.72;7.78;;;;;;;6.08;84.98;102074.19;2904286;81;21055;-66
2021/12/17 18:48:29;;;;;;;12.37;8.80;;;;;;;6.09;85.27;102072.83;2905335;81;21070;-65
2021/12/17 18:52:30;;;;;;;11.65;8.75;;;;;;;6.16;85.00;102068.64;2905329;82;21606;-66
2021/12/17 18:56:31;;;;;;;11.80;7.28;;;;;;;6.09;84.98;102066.66;2905506;81;21030;-64
2021/12/17 19:00:34;;;;;;;9.48;5.97;;;;;;;6.11;85.05;102068.35;2905649;81;21027;-64
2021/12/17 19:04:35;;;;;;;17.60;7.40;;;;;;;6.00;84.73;102067.81;2905669;81;21007;-67
2021/12/17 19:08:39;;;;;;;36.60;15.85;;;;;;;6.04;85.41;102078.70;2905773;82;21014;-65
2021/12/17 19:12:41;;;;;;;43.25;22.67;;;;;;;6.06;85.14;102074.23;2905581;81;21065;-64
2021/12/17 19:16:45;;;;;;;18.00;8.90;;;;;;;6.01;85.36;102081.45;2905732;82;20995;-66
2021/12/17 19:20:47;;;;;;;19.32;6.85;;;;;;;5.97;85.20;102074.05;2894547;81;21261;-66
2021/12/17 19:24:49;;;;;;;12.10;6.05;;;;;;;5.88;85.52;102086.26;2861540;83;21025;-65
2021/12/17 19:28:50;;;;;;;8.25;4.67;;;;;;;5.78;86.14;102088.34;2861701;83;21022;-65
2021/12/17 19:32:52;;;;;;;9.83;5.58;;;;;;;5.78;86.26;102090.10;2861912;83;20959;-64
2021/12/17 19:36:54;;;;;;;10.40;4.65;;;;;;;5.76;86.53;102102.05;2905650;82;21027;-67
2021/12/17 19:40:55;;;;;;;9.10;3.85;;;;;;;5.67;86.81;102101.89;2905681;82;21027;-67
2021/12/17 19:44:57;;;;;;;11.18;4.78;;;;;;;5.74;86.67;102110.48;2901748;82;21047;-66
2021/12/17 19:53:14;;;;;;;9.48;5.05;;;;;;;5.67;86.88;102128.30;2962783;80;21089;-67
2021/12/17 19:57:18;;;;;;;10.90;5.40;;;;;;;5.72;86.37;102132.13;2962945;80;21059;-67
2021/12/17 20:01:21;;;;;;;6.53;3.98;;;;;;;5.78;86.11;102133.23;2962918;80;20967;-67
2021/12/17 20:05:24;;;;;;;8.33;4.10;;;;;;;5.76;86.59;102146.07;2962606;80;21061;-67
2021/12/17 20:09:27;;;;;;;7.10;4.35;;;;;;;5.84;86.11;102142.27;2962906;80;21050;-65
2021/12/17 20:13:29;;;;;;;16.50;5.45;;;;;;;5.85;86.54;102142.67;2962786;80;21081;-66
2021/12/17 20:17:32;;;;;;;8.63;5.55;;;;;;;5.90;85.77;102139.05;2962837;80;21070;-67
2021/12/17 20:21:36;;;;;;;11.65;7.28;;;;;;;5.89;86.31;102143.45;2962580;80;21046;-69
2021/12/17 20:25:38;;;;;;;16.55;8.00;;;;;;;5.88;85.99;102139.53;2962776;80;21005;-68
2021/12/17 20:29:41;;;;;;;8.03;5.28;;;;;;;5.78;86.33;102146.44;2962135;80;21092;-65
2021/12/17 20:33:44;;;;;;;16.65;8.28;;;;;;;5.69;86.26;102144.95;2962908;80;21075;-67
2021/12/17 20:37:45;;;;;;;11.33;4.85;;;;;;;5.75;86.16;102143.02;2962940;80;21054;-64
2021/12/17 20:41:50;;;;;;;11.10;4.85;;;;;;;5.65;85.94;102131.89;2962356;79;21081;-65
2021/12/17 20:45:51;;;;;;;10.03;5.78;;;;;;;5.57;86.09;102129.05;2969942;80;21061;-63
2021/12/17 20:49:53;;;;;;;13.45;6.67;;;;;;;5.63;86.13;102121.83;2971973;80;21019;-65
2021/12/17 20:53:54;;;;;;;16.97;7.25;;;;;;;5.71;85.85;102115.88;2972098;80;21002;-65
2021/12/17 20:57:56;;;;;;;14.70;7.70;;;;;;;5.46;86.35;102120.58;2972163;80;20983;-66
2021/12/17 21:01:57;;;;;;;23.35;8.55;;;;;;;5.54;86.60;102110.66;2971938;80;21006;-69
2021/12/17 21:05:59;;;;;;;18.15;5.80;;;;;;;5.40;87.12;102116.38;2971594;80;21034;-65
2021/12/17 21:10:02;;;;;;;15.32;6.87;;;;;;;5.28;87.17;102113.63;2971661;80;21084;-69
2021/12/17 21:14:12;;;;;;;16.48;8.15;;;;;;;5.18;87.43;102120.11;2971606;80;21026;-67
2021/12/17 21:18:13;;;;;;;12.95;6.40;;;;;;;5.18;87.55;102124.51;2970524;80;21014;-66
2021/12/17 21:22:13;;;;;;;13.08;7.58;;;;;;;5.14;87.44;102127.72;2970336;80;21026;-66
2021/12/17 21:26:14;;;;;;;10.28;5.97;;;;;;;5.11;87.50;102131.73;2953643;80;20995;-68
2021/12/17 21:30:18;;;;;;;12.07;7.50;;;;;;;5.00;87.77;102133.37;2942041;81;20991;-65
2021/12/17 21:34:21;;;;;;;14.70;7.83;;;;;;;5.02;87.56;102131.58;2942940;80;21387;-67
2021/12/17 21:38:22;;;;;;;10.45;6.78;;;;;;;4.89;88.00;102140.27;2971676;80;21054;-68
2021/12/17 21:42:25;;;;;;;16.32;8.40;;;;;;;4.86;87.92;102130.69;2946879;80;21067;-69
2021/12/17 21:46:27;;;;;;;13.22;8.38;;;;;;;4.74;88.46;102135.45;2862338;82;21078;-68
2021/12/17 21:50:32;;;;;;;18.42;5.97;;;;;;;4.75;88.27;102137.17;2879015;82;21030;-67
2021/12/17 21:54:33;;;;;;;16.70;10.65;;;;;;;4.67;88.31;102132.11;2862523;83;21027;-69
2021/12/17 21:58:35;;;;;;;16.97;7.95;;;;;;;4.66;88.35;102131.70;2864986;83;21066;-67
2021/12/17 22:02:38;;;;;;;12.13;6.78;;;;;;;4.47;89.02;102126.05;2885671;82;21552;-69
2021/12/17 22:06:42;;;;;;;13.72;7.37;;;;;;;4.38;89.54;102133.73;2885718;82;21059;-69
2021/12/17 22:10:44;;;;;;;14.35;7.45;;;;;;;4.33;89.84;102131.25;2881394;82;21000;-68
2021/12/17 22:14:46;;;;;;;16.35;7.33;;;;;;;4.32;90.21;102124.69;2816642;82;21039;-66
2021/12/17 22:18:47;;;;;;;21.40;8.13;;;;;;;4.28;90.50;102136.62;2885844;82;21028;-66
2021/12/17 22:22:49;;;;;;;10.50;6.40;;;;;;;4.26;90.70;102137.56;2885716;82;21038;-67